createdAt,value
2018-12-19T00:00:41.024Z,2.50
2018-12-19T00:03:09.231Z,2.60
2018-12-19T00:05:37.592Z,2.60
2018-12-19T00:08:05.843Z,2.60
2018-12-19T00:10:34.031Z,2.60
2018-12-19T00:13:02.361Z,2.50
2018-12-19T00:15:30.568Z,2.60
2018-12-19T00:17:58.828Z,2.50
2018-12-19T00:20:27.056Z,2.50
2018-12-19T00:22:55.580Z,2.60
2018-12-19T00:25:23.835Z,2.60
2018-12-19T00:27:51.997Z,2.60
2018-12-19T00:30:20.290Z,2.60
2018-12-19T00:32:48.567Z,2.60
2018-12-19T00:35:16.776Z,2.60
2018-12-19T00:37:44.956Z,2.60
2018-12-19T00:40:13.191Z,2.60
2018-12-19T00:42:41.496Z,2.60
2018-12-19T00:45:09.719Z,2.60
2018-12-19T00:47:37.918Z,2.60
2018-12-19T00:50:06.966Z,2.60
2018-12-19T00:52:35.127Z,2.60
2018-12-19T00:55:03.537Z,2.60
2018-12-19T00:57:31.813Z,2.60
2018-12-19T01:00:00.164Z,2.50
2018-12-19T01:02:28.462Z,2.50
2018-12-19T01:04:56.740Z,2.50
2018-12-19T01:07:24.923Z,2.50
2018-12-19T01:09:53.228Z,2.50
2018-12-19T01:12:21.493Z,2.50
2018-12-19T01:14:49.757Z,2.50
2018-12-19T01:17:17.974Z,2.50
2018-12-19T01:19:46.260Z,2.50
2018-12-19T01:22:15.082Z,2.50
2018-12-19T01:24:43.324Z,2.50
2018-12-19T01:27:11.494Z,2.40
2018-12-19T01:29:40.079Z,2.40
2018-12-19T01:32:08.266Z,2.40
2018-12-19T01:34:36.507Z,2.40
2018-12-19T01:37:04.770Z,2.30
2018-12-19T01:39:33.036Z,2.30
2018-12-19T01:42:01.303Z,2.30
2018-12-19T01:44:29.545Z,2.30
2018-12-19T01:46:57.777Z,2.30
2018-12-19T01:49:26.085Z,2.20
2018-12-19T01:51:54.305Z,2.30
2018-12-19T01:54:22.549Z,2.20
2018-12-19T01:56:50.807Z,2.20
2018-12-19T01:59:19.097Z,2.20
2018-12-19T02:01:47.361Z,2.20
2018-12-19T02:04:15.706Z,2.20
2018-12-19T02:06:43.970Z,2.20
2018-12-19T02:09:12.196Z,2.10
2018-12-19T02:11:40.455Z,2.20
2018-12-19T02:14:08.706Z,2.20
2018-12-19T02:16:36.984Z,2.20
2018-12-19T02:19:05.215Z,2.20
2018-12-19T02:21:33.499Z,2.30
2018-12-19T02:24:01.686Z,2.20
2018-12-19T02:26:29.999Z,2.20
2018-12-19T02:28:58.184Z,2.20
2018-12-19T02:31:26.414Z,2.20
2018-12-19T02:33:54.715Z,2.20
2018-12-19T02:36:22.964Z,2.20
2018-12-19T02:38:51.219Z,2.20
2018-12-19T02:41:19.467Z,2.20
2018-12-19T02:43:47.717Z,2.20
2018-12-19T02:46:15.960Z,2.10
2018-12-19T02:48:44.175Z,2.20
2018-12-19T02:51:12.405Z,2.20
2018-12-19T02:53:40.624Z,2.10
2018-12-19T02:56:09.011Z,2.00
2018-12-19T02:58:37.318Z,2.10
2018-12-19T03:01:05.545Z,2.10
2018-12-19T03:03:33.888Z,2.10
2018-12-19T03:06:02.134Z,2.00
2018-12-19T03:08:30.344Z,2.10
2018-12-19T03:10:58.545Z,2.10
2018-12-19T03:13:26.782Z,2.10
2018-12-19T03:15:54.964Z,2.10
2018-12-19T03:18:23.205Z,2.10
2018-12-19T03:20:51.477Z,2.10
2018-12-19T03:23:19.697Z,2.10
2018-12-19T03:25:48.057Z,2.10
2018-12-19T03:28:16.371Z,2.10
2018-12-19T03:30:44.538Z,2.10
2018-12-19T03:33:12.759Z,2.00
2018-12-19T03:35:40.974Z,2.00
2018-12-19T03:38:11.092Z,2.00
2018-12-19T03:40:39.389Z,2.00
2018-12-19T03:43:07.635Z,2.10
2018-12-19T03:45:35.747Z,2.10
2018-12-19T03:48:03.977Z,2.10
2018-12-19T03:50:32.132Z,2.10
2018-12-19T03:53:00.287Z,2.10
2018-12-19T03:55:28.505Z,2.10
2018-12-19T03:57:56.832Z,2.20
2018-12-19T04:00:25.079Z,2.20
2018-12-19T04:02:53.353Z,2.10
2018-12-19T04:05:21.570Z,2.10
2018-12-19T04:07:49.748Z,2.10
2018-12-19T04:10:17.963Z,2.10
2018-12-19T04:12:46.139Z,2.10
2018-12-19T04:15:14.368Z,2.10
2018-12-19T04:17:42.719Z,2.10
2018-12-19T04:20:11.056Z,2.10
2018-12-19T04:22:39.279Z,2.10
2018-12-19T04:25:07.497Z,2.10
2018-12-19T04:27:35.875Z,2.10
2018-12-19T04:30:04.440Z,2.10
2018-12-19T04:32:32.977Z,2.00
2018-12-19T04:35:01.218Z,2.10
2018-12-19T04:37:29.356Z,2.20
2018-12-19T04:40:05.130Z,2.20
2018-12-19T04:42:27.830Z,2.20
2018-12-19T04:44:55.987Z,2.20
2018-12-19T04:47:24.270Z,2.20
2018-12-19T04:49:52.547Z,2.20
2018-12-19T04:52:20.842Z,2.20
2018-12-19T04:54:49.521Z,2.20
2018-12-19T04:57:17.766Z,2.10
2018-12-19T04:59:48.760Z,2.20
2018-12-19T05:02:16.970Z,2.20
2018-12-19T05:04:46.786Z,2.20
2018-12-19T05:07:15.097Z,2.30
2018-12-19T05:09:43.272Z,2.30
2018-12-19T05:12:11.511Z,2.20
2018-12-19T05:14:39.990Z,2.30
2018-12-19T05:17:08.336Z,2.30
2018-12-19T05:19:36.529Z,2.30
2018-12-19T05:22:04.735Z,2.30
2018-12-19T05:24:33.011Z,2.30
2018-12-19T05:27:01.201Z,2.30
2018-12-19T05:29:29.420Z,2.30
2018-12-19T05:31:57.688Z,2.30
2018-12-19T05:34:25.960Z,2.30
2018-12-19T05:36:54.176Z,2.30
2018-12-19T05:39:22.538Z,2.30
2018-12-19T05:41:50.743Z,2.30
2018-12-19T05:44:19.008Z,2.30
2018-12-19T05:46:47.266Z,2.30
2018-12-19T05:49:15.611Z,2.30
2018-12-19T05:51:52.451Z,2.40
2018-12-19T05:54:20.748Z,2.30
2018-12-19T05:56:48.998Z,2.40
2018-12-19T05:59:17.271Z,2.30
2018-12-19T06:01:45.543Z,2.30
2018-12-19T06:04:13.774Z,2.30
2018-12-19T06:06:41.967Z,2.30
2018-12-19T06:09:10.199Z,2.30
2018-12-19T06:11:38.474Z,2.30
2018-12-19T06:14:06.730Z,2.30
2018-12-19T06:16:34.924Z,2.30
2018-12-19T06:19:03.138Z,2.30
2018-12-19T06:21:32.248Z,2.30
2018-12-19T06:24:00.674Z,2.30
2018-12-19T06:26:28.972Z,2.20
2018-12-19T06:28:57.247Z,2.20
2018-12-19T06:31:38.323Z,2.20
2018-12-19T06:34:06.499Z,2.20
2018-12-19T06:36:45.848Z,2.20
2018-12-19T06:39:14.149Z,2.20
2018-12-19T06:41:42.612Z,2.20
2018-12-19T06:44:10.874Z,2.20
2018-12-19T06:46:40.039Z,2.20
2018-12-19T06:49:08.280Z,2.20
2018-12-19T06:51:43.128Z,2.20
2018-12-19T06:54:11.807Z,2.20
2018-12-19T06:56:40.047Z,2.20
2018-12-19T06:59:08.436Z,2.20
2018-12-19T07:01:36.760Z,2.20
2018-12-19T07:04:04.966Z,2.20
2018-12-19T07:06:33.273Z,2.20
2018-12-19T07:09:01.783Z,2.30
2018-12-19T07:11:30.110Z,2.20
2018-12-19T07:13:58.449Z,2.20
2018-12-19T07:16:27.961Z,2.20
2018-12-19T07:18:56.284Z,2.20
2018-12-19T07:21:25.918Z,2.20
2018-12-19T07:23:54.463Z,2.20
2018-12-19T07:26:22.757Z,2.20
2018-12-19T07:28:51.028Z,2.20
2018-12-19T07:31:19.304Z,2.20
2018-12-19T07:33:48.207Z,2.20
2018-12-19T07:36:16.553Z,2.20
2018-12-19T07:38:44.870Z,2.20
2018-12-19T07:41:13.104Z,2.20
2018-12-19T07:43:41.338Z,2.20
2018-12-19T07:46:09.536Z,2.20
2018-12-19T07:48:37.935Z,2.30
2018-12-19T07:51:06.155Z,2.30
2018-12-19T07:53:37.171Z,2.30
2018-12-19T07:56:05.832Z,2.30
2018-12-19T07:58:34.146Z,2.30
2018-12-19T08:01:02.432Z,2.30
2018-12-19T08:03:30.655Z,2.40
2018-12-19T08:05:58.842Z,2.40
2018-12-19T08:08:27.002Z,2.40
2018-12-19T08:10:55.293Z,2.40
2018-12-19T08:13:23.520Z,2.40
2018-12-19T08:15:51.744Z,2.50
2018-12-19T08:18:19.925Z,2.50
2018-12-19T08:20:48.809Z,2.50
2018-12-19T08:23:17.000Z,2.60
2018-12-19T08:25:45.371Z,2.60
2018-12-19T08:28:15.956Z,2.50
2018-12-19T08:30:44.226Z,2.60
2018-12-19T08:33:12.437Z,2.60
2018-12-19T08:35:47.197Z,2.60
2018-12-19T08:38:15.487Z,2.70
2018-12-19T08:40:43.705Z,2.70
2018-12-19T08:43:11.850Z,2.70
2018-12-19T08:45:40.687Z,2.70
2018-12-19T08:48:09.004Z,2.70
2018-12-19T08:50:37.233Z,2.70
2018-12-19T08:53:05.600Z,2.70
2018-12-19T08:55:34.868Z,2.80
2018-12-19T08:58:03.169Z,2.80
2018-12-19T09:00:31.439Z,2.90
2018-12-19T09:02:59.690Z,2.80
2018-12-19T09:05:27.971Z,2.90
2018-12-19T09:07:56.111Z,2.90
2018-12-19T09:10:24.368Z,2.90
2018-12-19T09:12:52.529Z,3.00
2018-12-19T09:15:27.752Z,3.00
2018-12-19T09:17:56.405Z,3.00
2018-12-19T09:20:25.239Z,3.00
2018-12-19T09:22:53.467Z,3.00
2018-12-19T09:25:21.795Z,3.00
2018-12-19T09:27:50.396Z,3.00
2018-12-19T09:30:19.418Z,3.00
2018-12-19T09:32:47.784Z,3.00
2018-12-19T09:35:16.057Z,3.00
2018-12-19T09:37:44.193Z,3.00
2018-12-19T09:40:12.430Z,3.00
2018-12-19T09:42:40.659Z,3.00
2018-12-19T09:45:08.888Z,3.10
2018-12-19T09:47:37.158Z,3.10
2018-12-19T09:50:05.483Z,3.00
2018-12-19T09:52:33.744Z,3.00
2018-12-19T09:55:01.948Z,3.00
2018-12-19T09:57:30.490Z,3.00
2018-12-19T09:59:58.765Z,3.00
2018-12-19T10:02:27.015Z,3.00
2018-12-19T10:04:55.171Z,3.00
2018-12-19T10:07:23.400Z,3.00
2018-12-19T10:09:51.696Z,3.00
2018-12-19T10:12:20.005Z,3.00
2018-12-19T10:14:48.511Z,3.10
2018-12-19T10:17:16.803Z,3.10
2018-12-19T10:19:45.062Z,3.10
2018-12-19T10:22:17.559Z,3.20
2018-12-19T10:24:51.280Z,3.20
2018-12-19T10:27:21.559Z,3.30
2018-12-19T10:29:49.847Z,3.40
2018-12-19T10:32:18.082Z,3.40
2018-12-19T10:34:46.321Z,3.40
2018-12-19T10:37:14.626Z,3.40
2018-12-19T10:39:43.041Z,3.50
2018-12-19T10:42:11.252Z,3.40
2018-12-19T10:44:39.476Z,3.40
2018-12-19T10:47:07.795Z,3.30
2018-12-19T10:49:36.074Z,3.30
2018-12-19T10:52:04.435Z,3.30
2018-12-19T10:54:32.793Z,3.30
2018-12-19T10:57:01.003Z,3.30
2018-12-19T10:59:29.181Z,3.20
2018-12-19T11:01:57.465Z,3.20
2018-12-19T11:04:25.738Z,3.20
2018-12-19T11:06:54.012Z,3.30
2018-12-19T11:09:22.291Z,3.30
2018-12-19T11:11:50.470Z,3.30
2018-12-19T11:14:18.701Z,3.30
2018-12-19T11:16:46.955Z,3.40
2018-12-19T11:19:15.122Z,3.40
2018-12-19T11:21:43.339Z,3.40
2018-12-19T11:24:11.655Z,3.40
2018-12-19T11:26:40.173Z,3.40
2018-12-19T11:29:08.400Z,3.40
2018-12-19T11:31:36.706Z,3.40
2018-12-19T11:34:04.913Z,3.40
2018-12-19T11:36:33.174Z,3.40
2018-12-19T11:39:01.436Z,3.30
2018-12-19T11:41:29.713Z,3.30
2018-12-19T11:43:58.139Z,3.30
2018-12-19T11:46:26.552Z,3.30
2018-12-19T11:48:54.828Z,3.10
2018-12-19T11:51:23.158Z,3.10
2018-12-19T11:53:51.370Z,3.10
2018-12-19T11:56:19.648Z,3.10
2018-12-19T11:58:47.926Z,3.10
2018-12-19T12:01:16.077Z,3.10
2018-12-19T12:03:44.329Z,3.10
2018-12-19T12:06:12.616Z,3.10
2018-12-19T12:08:40.906Z,3.10
2018-12-19T12:11:09.070Z,3.10
2018-12-19T12:13:37.307Z,3.00
2018-12-19T12:16:05.578Z,3.10
2018-12-19T12:18:33.844Z,3.10
2018-12-19T12:21:02.062Z,3.10
2018-12-19T12:23:30.252Z,3.10
2018-12-19T12:25:58.518Z,3.00
2018-12-19T12:28:26.664Z,3.10
2018-12-19T12:30:54.934Z,3.10
2018-12-19T12:33:23.252Z,3.10
2018-12-19T12:35:54.599Z,3.10
2018-12-19T12:38:26.150Z,3.00
2018-12-19T12:40:54.428Z,3.00
2018-12-19T12:43:22.579Z,3.00
2018-12-19T12:45:50.745Z,3.00
2018-12-19T12:48:20.069Z,2.90
2018-12-19T12:50:48.288Z,2.90
2018-12-19T12:55:51.156Z,2.90
2018-12-19T12:58:19.449Z,2.90
2018-12-19T13:00:47.745Z,2.90
2018-12-19T13:03:16.045Z,2.90
2018-12-19T13:05:44.261Z,3.00
2018-12-19T13:08:12.500Z,3.00
2018-12-19T13:10:42.791Z,3.00
2018-12-19T13:13:11.014Z,3.00
2018-12-19T13:15:41.026Z,2.90
2018-12-19T13:18:09.260Z,2.90
2018-12-19T13:20:37.541Z,2.90
2018-12-19T13:23:05.780Z,3.00
2018-12-19T13:25:34.048Z,2.90
2018-12-19T13:28:06.575Z,2.80
2018-12-19T13:30:34.854Z,2.90
2018-12-19T13:33:03.063Z,2.80
2018-12-19T13:35:31.278Z,2.90
2018-12-19T13:37:59.493Z,2.90
2018-12-19T13:40:27.739Z,2.80
2018-12-19T13:42:56.031Z,2.80
2018-12-19T13:45:24.348Z,2.80
2018-12-19T13:47:52.534Z,2.80
2018-12-19T13:50:20.809Z,2.80
2018-12-19T13:52:49.105Z,2.80
2018-12-19T13:55:17.330Z,2.80
2018-12-19T13:57:45.587Z,2.80
2018-12-19T14:00:13.826Z,2.80
2018-12-19T14:02:56.899Z,2.80
2018-12-19T14:05:27.165Z,2.80
2018-12-19T14:07:55.383Z,2.70
2018-12-19T14:10:23.641Z,2.80
2018-12-19T14:12:51.974Z,2.80
2018-12-19T14:15:21.331Z,2.80
2018-12-19T14:17:49.565Z,2.80
2018-12-19T14:20:17.883Z,2.80
2018-12-19T14:22:46.195Z,2.80
2018-12-19T14:25:14.407Z,2.70
2018-12-19T14:27:42.667Z,2.70
2018-12-19T14:30:11.014Z,2.70
2018-12-19T14:32:39.270Z,2.70
2018-12-19T14:35:07.559Z,2.70
2018-12-19T14:37:35.751Z,2.70
2018-12-19T14:40:04.591Z,2.70
2018-12-19T14:42:32.919Z,2.80
2018-12-19T14:45:01.191Z,2.70
2018-12-19T14:47:29.344Z,2.70
2018-12-19T14:49:57.596Z,2.70
2018-12-19T14:52:25.775Z,2.70
2018-12-19T14:54:54.079Z,2.70
2018-12-19T14:57:22.312Z,2.80
2018-12-19T14:59:51.859Z,2.70
2018-12-19T15:02:20.436Z,2.70
2018-12-19T15:04:48.990Z,2.60
2018-12-19T15:07:17.405Z,2.60
2018-12-19T15:09:45.686Z,2.60
2018-12-19T15:12:13.913Z,2.50
2018-12-19T15:14:42.214Z,2.50
2018-12-19T15:17:13.837Z,2.60
2018-12-19T15:19:40.769Z,2.50
2018-12-19T15:22:09.041Z,2.50
2018-12-19T15:24:37.512Z,2.50
2018-12-19T15:27:05.719Z,2.50
2018-12-19T15:29:34.035Z,2.40
2018-12-19T15:32:02.271Z,2.40
2018-12-19T15:34:30.464Z,2.40
2018-12-19T15:36:58.751Z,2.50
2018-12-19T15:39:30.156Z,2.50
2018-12-19T15:41:58.428Z,2.40
2018-12-19T15:44:26.728Z,2.40
2018-12-19T15:46:54.893Z,2.40
2018-12-19T15:49:23.200Z,2.40
2018-12-19T15:51:52.619Z,2.40
2018-12-19T15:54:20.971Z,2.40
2018-12-19T15:56:49.255Z,2.40
2018-12-19T15:59:17.542Z,2.30
2018-12-19T16:01:45.809Z,2.30
2018-12-19T16:04:14.757Z,2.30
2018-12-19T16:06:43.029Z,2.30
2018-12-19T16:09:11.267Z,2.30
2018-12-19T16:11:39.485Z,2.30
2018-12-19T16:14:07.775Z,2.30
2018-12-19T16:16:36.003Z,2.30
2018-12-19T16:19:04.251Z,2.30
2018-12-19T16:21:32.521Z,2.40
2018-12-19T16:24:00.821Z,2.40
2018-12-19T16:26:29.074Z,2.30
2018-12-19T16:28:57.367Z,2.40
2018-12-19T16:31:25.617Z,2.50
2018-12-19T16:33:53.899Z,2.50
2018-12-19T16:36:22.240Z,2.50
2018-12-19T16:38:50.516Z,2.50
2018-12-19T16:41:18.839Z,2.50
2018-12-19T16:43:47.129Z,2.50
2018-12-19T16:46:15.386Z,2.50
2018-12-19T16:48:43.690Z,2.60
2018-12-19T16:51:11.897Z,2.50
2018-12-19T16:53:40.211Z,2.60
2018-12-19T16:56:08.427Z,2.60
2018-12-19T16:58:36.676Z,2.60
2018-12-19T17:01:04.936Z,2.60
2018-12-19T17:03:33.218Z,2.50
2018-12-19T17:06:01.562Z,2.60
2018-12-19T17:08:29.811Z,2.60
2018-12-19T17:10:58.186Z,2.50
2018-12-19T17:13:26.481Z,2.60
2018-12-19T17:15:54.691Z,2.50
2018-12-19T17:18:22.995Z,2.60
2018-12-19T17:20:51.276Z,2.60
2018-12-19T17:23:19.565Z,2.50
2018-12-19T17:25:47.876Z,2.50
2018-12-19T17:28:16.169Z,2.50
2018-12-19T17:30:44.390Z,2.50
2018-12-19T17:33:12.679Z,2.50
2018-12-19T17:35:41.052Z,2.50
2018-12-19T17:38:09.436Z,2.50
2018-12-19T17:40:37.675Z,2.50
2018-12-19T17:43:06.015Z,2.50
2018-12-19T17:45:34.597Z,2.50
2018-12-19T17:48:02.833Z,2.50
2018-12-19T17:50:31.421Z,2.50
2018-12-19T17:52:59.760Z,2.40
2018-12-19T17:55:29.039Z,2.50
2018-12-19T17:57:57.269Z,2.40
2018-12-19T18:00:25.652Z,2.40
2018-12-19T18:02:53.955Z,2.40
2018-12-19T18:05:22.114Z,2.50
2018-12-19T18:07:50.394Z,2.40
2018-12-19T18:10:18.805Z,2.40
2018-12-19T18:12:47.122Z,2.40
2018-12-19T18:15:15.400Z,2.40
2018-12-19T18:17:43.948Z,2.40
2018-12-19T18:20:12.273Z,2.40
2018-12-19T18:22:40.485Z,2.30
2018-12-19T18:25:08.814Z,2.30
2018-12-19T18:27:37.156Z,2.30
2018-12-19T18:30:06.033Z,2.20
2018-12-19T18:32:34.507Z,2.20
2018-12-19T18:35:02.791Z,2.20
2018-12-19T18:37:31.051Z,2.20
2018-12-19T18:39:59.232Z,2.30
2018-12-19T18:42:27.462Z,2.30
2018-12-19T18:44:55.664Z,2.20
2018-12-19T18:47:23.918Z,2.20
2018-12-19T18:49:52.251Z,2.20
2018-12-19T18:52:21.920Z,2.20
2018-12-19T18:54:50.830Z,2.20
2018-12-19T18:57:19.177Z,2.10
2018-12-19T18:59:47.502Z,2.20
2018-12-19T19:02:15.726Z,2.10
2018-12-19T19:04:44.013Z,2.10
2018-12-19T19:07:12.420Z,2.00
2018-12-19T19:09:40.662Z,2.00
2018-12-19T19:12:09.212Z,2.00
2018-12-19T19:14:37.586Z,2.00
2018-12-19T19:17:05.952Z,2.00
2018-12-19T19:19:34.342Z,2.00
2018-12-19T19:22:02.745Z,2.00
2018-12-19T19:24:31.104Z,2.00
2018-12-19T19:26:59.333Z,2.00
2018-12-19T19:29:27.584Z,2.00
2018-12-19T19:31:55.899Z,2.00
2018-12-19T19:34:25.178Z,2.10
2018-12-19T19:36:53.679Z,2.10
2018-12-19T19:39:22.330Z,2.10
2018-12-19T19:41:50.551Z,2.10
2018-12-19T19:44:18.873Z,2.10
2018-12-19T19:46:47.090Z,2.10
2018-12-19T19:49:15.388Z,2.10
2018-12-19T19:51:43.667Z,2.00
2018-12-19T19:54:11.875Z,2.00
2018-12-19T19:56:40.192Z,2.00
2018-12-19T19:59:08.493Z,2.00
2018-12-19T20:01:36.780Z,2.00
2018-12-19T20:04:04.966Z,1.90
2018-12-19T20:06:33.571Z,1.90
2018-12-19T20:09:01.867Z,1.80
2018-12-19T20:11:30.259Z,1.80
2018-12-19T20:13:58.810Z,1.80
2018-12-19T20:16:27.064Z,1.80
2018-12-19T20:18:55.417Z,1.80
2018-12-19T20:21:23.587Z,1.80
2018-12-19T20:23:51.847Z,1.80
2018-12-19T20:26:20.204Z,1.70
2018-12-19T20:28:48.443Z,1.70
2018-12-19T20:31:16.613Z,1.70
2018-12-19T20:33:44.877Z,1.70
2018-12-19T20:36:13.140Z,1.70
2018-12-19T20:38:41.338Z,1.70
2018-12-19T20:41:09.569Z,1.70
2018-12-19T20:43:40.041Z,1.70
2018-12-19T20:46:08.090Z,1.70
2018-12-19T20:48:36.350Z,1.60
2018-12-19T20:51:04.581Z,1.60
2018-12-19T20:53:32.755Z,1.60
2018-12-19T20:56:03.917Z,1.60
2018-12-19T20:58:31.219Z,1.60
2018-12-19T21:00:59.473Z,1.60
2018-12-19T21:03:27.727Z,1.60
2018-12-19T21:05:55.881Z,1.60
2018-12-19T21:08:24.076Z,1.60
2018-12-19T21:10:52.359Z,1.60
2018-12-19T21:13:20.600Z,1.60
2018-12-19T21:15:48.906Z,1.70
2018-12-19T21:18:22.584Z,1.70
2018-12-19T21:20:50.963Z,1.70
2018-12-19T21:23:19.211Z,1.70
2018-12-19T21:25:47.360Z,1.70
2018-12-19T21:28:15.575Z,1.70
2018-12-19T21:30:43.857Z,1.80
2018-12-19T21:33:14.086Z,1.80
2018-12-19T21:35:42.459Z,1.80
2018-12-19T21:38:10.904Z,1.80
2018-12-19T21:40:39.127Z,1.80
2018-12-19T21:43:07.915Z,1.80
2018-12-19T21:45:36.251Z,1.80
2018-12-19T21:48:04.525Z,1.80
2018-12-19T21:50:32.962Z,1.80
2018-12-19T21:53:01.264Z,1.80
2018-12-19T21:55:29.521Z,1.80
2018-12-19T21:57:57.719Z,1.80
2018-12-19T22:00:30.645Z,1.80
2018-12-19T22:03:03.369Z,1.80
2018-12-19T22:05:31.605Z,1.80
2018-12-19T22:07:59.888Z,1.90
2018-12-19T22:10:28.161Z,1.80
2018-12-19T22:12:56.492Z,1.80
2018-12-19T22:15:24.812Z,1.80
2018-12-19T22:17:57.418Z,1.80
2018-12-19T22:20:25.752Z,1.80
2018-12-19T22:22:54.160Z,1.80
2018-12-19T22:25:22.421Z,1.80
2018-12-19T22:27:50.667Z,1.80
2018-12-19T22:30:18.931Z,1.80
2018-12-19T22:32:47.171Z,1.90
2018-12-19T22:35:15.393Z,1.90
2018-12-19T22:37:43.678Z,1.80
2018-12-19T22:40:12.002Z,1.80
2018-12-19T22:42:40.260Z,1.80
2018-12-19T22:45:08.545Z,1.80
2018-12-19T22:47:36.876Z,1.80
2018-12-19T22:50:06.011Z,1.70
2018-12-19T22:52:34.211Z,1.70
2018-12-19T22:55:02.607Z,1.70
2018-12-19T22:57:30.844Z,1.70
2018-12-19T22:59:59.137Z,1.70
2018-12-19T23:02:32.723Z,1.60
2018-12-19T23:05:00.971Z,1.70
2018-12-19T23:07:29.224Z,1.60
2018-12-19T23:09:57.514Z,1.70
2018-12-19T23:12:25.867Z,1.60
2018-12-19T23:14:54.111Z,1.60
2018-12-19T23:17:27.937Z,1.60
2018-12-19T23:19:56.216Z,1.70
2018-12-19T23:22:24.426Z,1.70
2018-12-19T23:24:52.677Z,1.70
2018-12-19T23:27:22.350Z,1.70
2018-12-19T23:29:50.781Z,1.60
2018-12-19T23:32:23.388Z,1.70
2018-12-19T23:34:51.626Z,1.60
2018-12-19T23:37:19.882Z,1.60
2018-12-19T23:39:48.043Z,1.60
2018-12-19T23:42:16.347Z,1.60
2018-12-19T23:44:44.622Z,1.60
2018-12-19T23:47:12.883Z,1.60
2018-12-19T23:49:41.187Z,1.50
2018-12-19T23:52:09.566Z,1.50
2018-12-19T23:54:38.069Z,1.50
2018-12-19T23:57:06.391Z,1.50
2018-12-19T23:59:34.707Z,1.50
